createdAt,value
2022-10-05T00:01:28.064Z,8.55
2022-10-05T00:05:45.985Z,9.23
2022-10-05T00:10:10.627Z,5.47
2022-10-05T00:14:35.764Z,8.32
2022-10-05T00:18:53.807Z,6.62
2022-10-05T00:23:15.581Z,6.80
2022-10-05T00:27:39.085Z,6.47
2022-10-05T00:36:11.122Z,9.00
2022-10-05T00:41:09.688Z,8.98
2022-10-05T00:45:33.046Z,9.98
2022-10-05T00:50:04.217Z,8.77
2022-10-05T00:54:49.615Z,7.35
2022-10-05T00:59:42.962Z,8.60
2022-10-05T01:04:10.759Z,8.82
2022-10-05T01:09:05.220Z,8.77
2022-10-05T01:13:50.438Z,7.82
2022-10-05T01:18:12.480Z,9.98
2022-10-05T01:22:52.426Z,11.10
2022-10-05T01:27:37.186Z,9.20
2022-10-05T01:32:21.000Z,9.45
2022-10-05T01:41:26.012Z,9.30
2022-10-05T01:45:51.679Z,11.32
2022-10-05T01:50:32.210Z,6.65
2022-10-05T01:55:13.828Z,6.90
2022-10-05T01:59:53.454Z,10.05
2022-10-05T02:04:42.615Z,9.43
2022-10-05T02:09:09.188Z,7.75
2022-10-05T02:13:41.440Z,7.00
2022-10-05T02:18:09.785Z,8.80
2022-10-05T02:22:45.968Z,9.15
2022-10-05T02:27:02.686Z,5.45
2022-10-05T02:31:23.289Z,5.30
2022-10-05T02:35:39.570Z,8.18
2022-10-05T02:40:43.155Z,5.78
2022-10-05T02:45:54.035Z,7.47
2022-10-05T02:50:27.320Z,6.65
2022-10-05T02:55:10.688Z,7.43
2022-10-05T02:59:43.808Z,9.50
2022-10-05T03:04:21.726Z,7.15
2022-10-05T03:09:01.890Z,7.78
2022-10-05T03:13:40.589Z,10.50
2022-10-05T03:17:59.824Z,7.43
2022-10-05T03:22:54.207Z,8.50
2022-10-05T03:27:19.017Z,8.48
2022-10-05T03:31:55.517Z,7.50
2022-10-05T03:36:44.210Z,8.45
2022-10-05T03:41:22.806Z,7.55
2022-10-05T03:45:48.902Z,11.18
2022-10-05T03:50:42.508Z,16.05
2022-10-05T03:55:23.868Z,7.25
2022-10-05T03:59:56.747Z,4.82
2022-10-05T04:04:18.167Z,7.63
2022-10-05T04:08:40.602Z,6.68
2022-10-05T04:13:24.685Z,8.73
2022-10-05T04:17:46.947Z,6.90
2022-10-05T04:22:22.887Z,8.07
2022-10-05T04:26:45.850Z,6.95
2022-10-05T04:31:05.656Z,8.00
2022-10-05T04:35:30.628Z,10.85
2022-10-05T04:40:01.285Z,10.20
2022-10-05T04:44:32.279Z,9.15
2022-10-05T04:49:09.370Z,11.00
2022-10-05T04:53:53.492Z,6.95
2022-10-05T04:58:42.416Z,11.98
2022-10-05T05:03:25.773Z,8.18
2022-10-05T05:07:51.533Z,10.75
2022-10-05T05:12:35.018Z,11.35
2022-10-05T05:17:03.522Z,9.52
2022-10-05T05:21:42.738Z,14.27
2022-10-05T05:26:07.966Z,8.73
2022-10-05T05:30:26.812Z,9.85
2022-10-05T05:35:27.140Z,9.02
2022-10-05T05:39:53.718Z,12.68
2022-10-05T05:44:18.679Z,12.43
2022-10-05T05:48:46.740Z,10.48
2022-10-05T05:53:20.908Z,196.82
2022-10-05T05:57:46.908Z,210.02
2022-10-05T06:02:16.354Z,209.37
2022-10-05T06:06:36.216Z,64.22
2022-10-05T06:10:57.971Z,38.47
2022-10-05T06:15:28.491Z,137.05
2022-10-05T06:19:46.221Z,46.92
2022-10-05T06:24:17.317Z,20.20
2022-10-05T06:28:33.375Z,30.45
2022-10-05T06:33:04.491Z,9.95
2022-10-05T06:37:53.110Z,8.90
2022-10-05T06:42:09.063Z,8.57
2022-10-05T06:46:40.155Z,10.18
2022-10-05T06:51:09.326Z,11.63
2022-10-05T06:55:49.341Z,11.43
2022-10-05T07:00:20.754Z,10.02
2022-10-05T07:05:01.571Z,40.80
2022-10-05T07:09:44.865Z,12.80
2022-10-05T07:14:30.366Z,9.27
2022-10-05T07:19:21.748Z,9.70
2022-10-05T07:23:59.523Z,12.88
2022-10-05T07:28:31.735Z,16.77
2022-10-05T07:33:23.351Z,17.62
2022-10-05T07:37:55.319Z,19.70
2022-10-05T07:42:32.968Z,23.75
2022-10-05T07:47:13.346Z,12.37
2022-10-05T07:51:45.464Z,10.70
2022-10-05T07:56:06.719Z,10.98
2022-10-05T08:00:24.570Z,13.93
2022-10-05T08:05:01.081Z,8.85
2022-10-05T08:09:39.405Z,9.60
2022-10-05T08:14:18.072Z,8.40
2022-10-05T08:19:28.412Z,8.05
2022-10-05T08:23:50.955Z,9.02
2022-10-05T08:28:23.859Z,7.63
2022-10-05T08:32:56.015Z,17.45
2022-10-05T08:37:35.682Z,8.18
2022-10-05T08:41:58.300Z,7.18
2022-10-05T08:46:36.840Z,7.57
2022-10-05T08:51:17.844Z,8.85
2022-10-05T08:56:28.855Z,5.68
2022-10-05T09:00:54.343Z,5.15
2022-10-05T09:05:25.436Z,8.30
2022-10-05T09:10:01.413Z,5.25
2022-10-05T09:14:30.936Z,4.18
2022-10-05T09:19:09.006Z,4.37
2022-10-05T09:23:45.307Z,5.00
2022-10-05T09:28:23.041Z,5.70
2022-10-05T09:32:54.704Z,8.30
2022-10-05T09:37:23.082Z,6.68
2022-10-05T09:41:50.682Z,3.50
2022-10-05T09:46:25.505Z,7.20
2022-10-05T09:50:52.152Z,4.47
2022-10-05T09:55:19.966Z,4.93
2022-10-05T09:59:47.036Z,5.43
2022-10-05T10:04:07.207Z,6.60
2022-10-05T10:08:47.192Z,4.53
2022-10-05T10:13:28.759Z,6.62
2022-10-05T10:17:57.169Z,4.03
2022-10-05T10:22:47.529Z,2.85
2022-10-05T10:27:16.742Z,5.00
2022-10-05T10:31:40.697Z,8.13
2022-10-05T10:36:11.817Z,2.87
2022-10-05T10:41:09.505Z,3.17
2022-10-05T10:45:56.871Z,4.30
2022-10-05T10:50:40.860Z,3.40
2022-10-05T10:55:21.283Z,4.53
2022-10-05T11:00:08.406Z,5.15
2022-10-05T11:04:45.687Z,3.58
2022-10-05T11:09:11.441Z,5.60
2022-10-05T11:13:55.806Z,4.37
2022-10-05T11:18:17.814Z,4.00
2022-10-05T11:23:05.273Z,7.32
2022-10-05T11:27:37.544Z,3.08
2022-10-05T11:32:32.841Z,3.83
2022-10-05T11:36:57.201Z,3.95
2022-10-05T11:41:47.146Z,6.68
2022-10-05T11:46:30.092Z,3.92
2022-10-05T11:51:17.306Z,2.00
2022-10-05T11:55:42.084Z,2.97
2022-10-05T11:59:59.591Z,4.32
2022-10-05T12:04:39.766Z,2.47
2022-10-05T12:09:23.905Z,3.78
2022-10-05T12:14:17.524Z,3.17
2022-10-05T12:18:34.316Z,3.40
2022-10-05T12:22:59.258Z,4.00
2022-10-05T12:27:22.948Z,7.55
2022-10-05T12:31:41.692Z,6.25
2022-10-05T12:36:14.590Z,5.78
2022-10-05T12:40:42.277Z,4.87
2022-10-05T12:45:23.908Z,2.17
2022-10-05T12:49:46.079Z,2.95
2022-10-05T12:54:09.165Z,6.50
2022-10-05T13:03:02.060Z,4.78
2022-10-05T13:07:41.342Z,4.72
2022-10-05T13:12:04.054Z,2.80
2022-10-05T13:16:54.823Z,3.05
2022-10-05T13:21:22.063Z,4.68
2022-10-05T13:25:44.855Z,3.42
2022-10-05T13:30:12.918Z,4.93
2022-10-05T13:35:10.585Z,5.62
2022-10-05T13:39:42.673Z,4.60
2022-10-05T13:44:17.613Z,4.25
2022-10-05T13:48:52.514Z,3.95
2022-10-05T13:53:36.752Z,5.37
2022-10-05T13:58:06.239Z,4.32
2022-10-05T14:02:27.889Z,6.07
2022-10-05T14:06:44.661Z,3.30
2022-10-05T14:11:20.427Z,4.57
2022-10-05T14:15:41.964Z,4.40
2022-10-05T14:20:03.070Z,5.07
2022-10-05T14:24:50.768Z,2.45
2022-10-05T14:29:19.061Z,2.70
2022-10-05T14:33:37.553Z,6.00
2022-10-05T14:38:16.642Z,4.03
2022-10-05T14:42:46.263Z,6.37
2022-10-05T14:47:20.425Z,5.70
2022-10-05T14:51:37.764Z,5.47
2022-10-05T14:56:03.246Z,2.55
2022-10-05T15:00:19.929Z,3.00
2022-10-05T15:05:00.082Z,4.50
2022-10-05T15:09:33.641Z,4.12
2022-10-05T15:13:50.116Z,3.30
2022-10-05T15:18:34.934Z,7.40
2022-10-05T15:23:13.139Z,4.95
2022-10-05T15:27:54.207Z,3.55
2022-10-05T15:32:19.527Z,4.05
2022-10-05T15:36:39.463Z,5.28
2022-10-05T15:41:03.159Z,13.13
2022-10-05T15:45:30.166Z,3.97
2022-10-05T15:50:10.654Z,4.95
2022-10-05T15:55:01.460Z,7.53
2022-10-05T15:59:38.770Z,5.37
2022-10-05T16:04:15.485Z,8.52
2022-10-05T16:08:54.394Z,4.62
2022-10-05T16:13:28.126Z,5.22
2022-10-05T16:18:05.338Z,12.63
2022-10-05T16:22:49.378Z,5.32
2022-10-05T16:27:17.301Z,8.75
2022-10-05T16:31:54.503Z,8.10
2022-10-05T16:36:23.317Z,7.32
2022-10-05T16:41:01.923Z,6.62
2022-10-05T16:45:30.393Z,4.05
2022-10-05T16:49:48.272Z,9.23
2022-10-05T16:54:13.443Z,15.35
2022-10-05T16:58:43.798Z,7.70
2022-10-05T17:03:10.443Z,5.30
2022-10-05T17:07:50.706Z,11.93
2022-10-05T17:12:16.533Z,8.15
2022-10-05T17:16:43.977Z,6.40
2022-10-05T17:21:15.564Z,6.32
2022-10-05T17:25:54.507Z,8.18
2022-10-05T17:30:29.513Z,7.55
2022-10-05T17:35:00.780Z,10.07
2022-10-05T17:39:16.932Z,8.15
2022-10-05T17:43:34.194Z,11.73
2022-10-05T17:48:10.089Z,10.73
2022-10-05T17:52:47.738Z,11.48
2022-10-05T17:57:04.840Z,11.80
2022-10-05T18:01:39.757Z,10.20
2022-10-05T18:06:28.459Z,11.52
2022-10-05T18:11:09.340Z,13.18
2022-10-05T18:15:25.340Z,8.52
2022-10-05T18:20:01.901Z,9.38
2022-10-05T18:24:27.135Z,7.35
2022-10-05T18:28:49.565Z,7.82
2022-10-05T18:33:25.474Z,8.13
2022-10-05T18:37:48.121Z,9.13
2022-10-05T18:42:16.166Z,8.80
2022-10-05T18:46:38.314Z,10.25
2022-10-05T18:51:05.568Z,10.85
2022-10-05T18:55:31.709Z,10.07
2022-10-05T19:00:08.305Z,8.32
2022-10-05T19:04:35.086Z,10.25
2022-10-05T19:09:28.767Z,9.95
2022-10-05T19:14:20.212Z,13.57
2022-10-05T19:18:40.052Z,13.62
2022-10-05T19:23:17.462Z,12.57
2022-10-05T19:28:12.122Z,11.15
2022-10-05T19:32:44.146Z,11.10
2022-10-05T19:37:10.779Z,12.02
2022-10-05T19:41:45.466Z,14.25
2022-10-05T19:46:21.560Z,9.80
2022-10-05T19:50:39.950Z,13.45
2022-10-05T19:55:16.897Z,11.10
2022-10-05T19:59:32.966Z,13.10
2022-10-05T20:03:50.220Z,16.27
2022-10-05T20:08:09.350Z,15.55
2022-10-05T20:12:47.924Z,12.27
2022-10-05T20:17:46.221Z,11.73
2022-10-05T20:22:27.306Z,9.57
2022-10-05T20:27:32.722Z,12.98
2022-10-05T20:31:48.942Z,18.98
2022-10-05T20:36:05.292Z,12.70
2022-10-05T20:40:21.607Z,12.10
2022-10-05T20:44:38.695Z,13.43
2022-10-05T20:48:54.884Z,18.00
2022-10-05T20:53:12.055Z,16.58
2022-10-05T20:57:28.340Z,14.95
2022-10-05T21:01:48.101Z,13.88
2022-10-05T21:06:04.281Z,14.13
2022-10-05T21:10:20.435Z,16.65
2022-10-05T21:14:37.848Z,11.45
2022-10-05T21:18:53.930Z,12.05
2022-10-05T21:23:12.361Z,13.15
2022-10-05T21:27:28.431Z,17.85
2022-10-05T21:31:44.519Z,14.90
2022-10-05T21:36:00.793Z,19.65
2022-10-05T21:40:17.337Z,13.52
2022-10-05T21:44:33.369Z,13.55
2022-10-05T21:48:49.872Z,18.15
2022-10-05T21:53:07.706Z,11.85
2022-10-05T21:57:23.811Z,13.60
2022-10-05T22:01:39.989Z,13.15
2022-10-05T22:05:56.138Z,12.48
2022-10-05T22:10:12.480Z,12.27
2022-10-05T22:14:28.543Z,13.93
2022-10-05T22:18:44.601Z,15.05
2022-10-05T22:23:00.627Z,11.50
2022-10-05T22:27:16.904Z,24.15
2022-10-05T22:31:33.042Z,12.52
2022-10-05T22:35:49.293Z,13.43
2022-10-05T22:40:07.226Z,14.32
2022-10-05T22:44:23.309Z,15.90
2022-10-05T22:48:40.039Z,10.98
2022-10-05T22:52:56.111Z,16.17
2022-10-05T22:57:12.349Z,14.85
2022-10-05T23:01:28.502Z,13.88
2022-10-05T23:05:44.557Z,13.90
2022-10-05T23:10:00.634Z,15.27
2022-10-05T23:14:17.097Z,13.07
2022-10-05T23:18:33.999Z,14.27
2022-10-05T23:22:50.047Z,16.20
2022-10-05T23:27:06.017Z,16.08
2022-10-05T23:31:24.438Z,13.77
2022-10-05T23:35:40.461Z,19.77
2022-10-05T23:39:56.504Z,16.05
2022-10-05T23:44:12.596Z,16.92
2022-10-05T23:48:29.237Z,13.48
2022-10-05T23:52:45.579Z,13.35
2022-10-05T23:57:01.574Z,15.00
